KLAR

Laramie Regional Airport

Laramie, Wyoming, USA
METAR KLAR 201253Z AUTO 03006KT 10SM CLR M04/M07 A2979 RMK AO2 SLP083 T10441072
Observed Flight Rules
Jan-20 @ 12:53 UTC (19 minutes ago) Visual Flight Rules
Wind Visibility Clouds
30° at 6 knots 10 miles
  • Clear skies
Temperatures Readings
Current -4°C / 25°F
Dewpoint -7°C / 19°F
Humidity 80%
Altimeter 29.79" Hg
Pressure 1008.3 hPa
Elevation 2216
METAR KLAR 201253Z AUTO 03006KT 10SM CLR M04/M07 A2979 RMK AO2 SLP083 T10441072
Observed Flight Rules
Jan-20 @ 12:53 UTC
(19 minutes ago)
VFR
Wind Visibility
30° at 6 knots 10 miles
Clouds
  • Clear skies
Temperature Dewpoint
-4°C / 25°F -7°C / 19°F
Humidity Altimeter Pressure
80% 29.79" Hg 1008.3 hPa